createdAt,value
2019-03-11T00:02:19.808Z,8.23
2019-03-11T00:04:49.944Z,8.20
2019-03-11T00:07:19.405Z,8.15
2019-03-11T00:09:48.765Z,8.11
2019-03-11T00:12:18.126Z,8.34
2019-03-11T00:14:47.409Z,8.19
2019-03-11T00:17:16.717Z,8.18
2019-03-11T00:19:46.305Z,8.04
2019-03-11T00:22:15.746Z,8.11
2019-03-11T00:24:45.044Z,8.03
2019-03-11T00:27:14.840Z,8.20
2019-03-11T00:29:44.157Z,8.18
2019-03-11T00:32:13.438Z,8.03
2019-03-11T00:34:42.756Z,8.05
2019-03-11T00:37:12.113Z,7.96
2019-03-11T00:39:41.459Z,7.99
2019-03-11T00:42:12.051Z,7.92
2019-03-11T00:44:41.394Z,7.96
2019-03-11T00:47:10.691Z,8.06
2019-03-11T00:49:40.482Z,8.16
2019-03-11T00:52:09.834Z,7.92
2019-03-11T00:54:39.123Z,7.86
2019-03-11T00:57:08.405Z,7.88
2019-03-11T00:59:37.761Z,7.75
2019-03-11T01:02:07.302Z,7.86
2019-03-11T01:04:37.956Z,8.01
2019-03-11T01:07:07.305Z,7.81
2019-03-11T01:09:36.578Z,7.86
2019-03-11T01:12:08.974Z,7.89
2019-03-11T01:14:38.238Z,7.84
2019-03-11T01:17:07.511Z,7.80
2019-03-11T01:19:37.182Z,7.79
2019-03-11T01:22:06.629Z,7.82
2019-03-11T01:24:35.929Z,7.86
2019-03-11T01:27:05.144Z,7.85
2019-03-11T01:29:34.462Z,7.89
2019-03-11T01:32:05.863Z,7.93
2019-03-11T01:34:35.119Z,8.12
2019-03-11T01:37:04.431Z,8.12
2019-03-11T01:39:33.734Z,8.02
2019-03-11T01:42:03.973Z,8.01
2019-03-11T01:44:33.661Z,7.95
2019-03-11T01:47:02.905Z,7.93
2019-03-11T01:49:32.363Z,7.90
2019-03-11T01:52:02.893Z,7.92
2019-03-11T01:54:32.616Z,7.93
2019-03-11T01:57:01.890Z,8.00
2019-03-11T01:59:31.185Z,7.85
2019-03-11T02:02:00.769Z,7.95
2019-03-11T02:04:30.385Z,8.00
2019-03-11T02:07:00.556Z,8.17
2019-03-11T02:09:30.044Z,8.18
2019-03-11T02:11:59.552Z,8.17
2019-03-11T02:14:28.941Z,7.91
2019-03-11T02:16:58.332Z,7.81
2019-03-11T02:19:27.957Z,7.79
2019-03-11T02:21:57.280Z,7.61
2019-03-11T02:24:26.570Z,7.65
2019-03-11T02:26:55.881Z,7.61
2019-03-11T02:29:25.587Z,7.60
2019-03-11T02:31:54.898Z,7.57
2019-03-11T02:34:24.176Z,7.54
2019-03-11T02:36:53.474Z,7.76
2019-03-11T02:39:23.131Z,7.56
2019-03-11T02:41:52.409Z,7.58
2019-03-11T02:44:21.709Z,7.61
2019-03-11T02:46:51.042Z,7.65
2019-03-11T02:49:20.246Z,7.62
2019-03-11T02:51:49.549Z,7.52
2019-03-11T02:54:18.832Z,7.44
2019-03-11T02:56:48.589Z,7.46
2019-03-11T02:59:17.907Z,7.34
2019-03-11T03:02:06.924Z,7.26
2019-03-11T03:04:40.739Z,7.20
2019-03-11T03:07:10.014Z,7.21
2019-03-11T03:09:40.100Z,7.18
2019-03-11T03:12:09.959Z,7.30
2019-03-11T03:14:39.233Z,7.32
2019-03-11T03:17:08.495Z,7.42
2019-03-11T03:19:37.818Z,7.50
2019-03-11T03:22:07.491Z,7.55
2019-03-11T03:24:36.786Z,7.69
2019-03-11T03:27:06.089Z,7.70
2019-03-11T03:29:35.339Z,7.75
2019-03-11T03:32:05.498Z,7.77
2019-03-11T03:34:34.794Z,7.74
2019-03-11T03:37:04.090Z,7.71
2019-03-11T03:39:33.887Z,7.76
2019-03-11T03:42:06.235Z,7.75
2019-03-11T03:44:35.508Z,7.80
2019-03-11T03:47:04.783Z,7.83
2019-03-11T03:49:34.057Z,7.76
2019-03-11T03:52:03.910Z,7.81
2019-03-11T03:54:33.634Z,7.78
2019-03-11T03:57:02.943Z,7.77
2019-03-11T03:59:32.213Z,7.84
2019-03-11T04:02:01.464Z,7.83
2019-03-11T04:04:30.773Z,7.78
2019-03-11T04:07:00.080Z,7.79
2019-03-11T04:09:29.693Z,7.85
2019-03-11T04:11:59.079Z,7.73
2019-03-11T04:14:28.383Z,7.73
2019-03-11T04:16:58.017Z,7.83
2019-03-11T04:19:29.379Z,7.69
2019-03-11T04:21:58.394Z,7.50
2019-03-11T04:24:27.635Z,7.48
2019-03-11T04:26:56.956Z,7.45
2019-03-11T04:29:26.401Z,7.17
2019-03-11T04:31:55.750Z,7.22
2019-03-11T04:34:25.046Z,7.33
2019-03-11T04:36:54.331Z,7.31
2019-03-11T04:39:23.962Z,7.20
2019-03-11T04:41:53.239Z,7.22
2019-03-11T04:44:22.544Z,7.41
2019-03-11T04:46:52.262Z,7.39
2019-03-11T04:49:21.598Z,7.10
2019-03-11T04:51:51.337Z,7.33
2019-03-11T04:54:20.782Z,7.33
2019-03-11T04:56:50.564Z,7.41
2019-03-11T04:59:19.809Z,7.24
2019-03-11T05:01:49.076Z,6.76
2019-03-11T05:04:18.425Z,6.92
2019-03-11T05:06:53.730Z,6.80
2019-03-11T05:09:23.048Z,6.81
2019-03-11T05:11:52.354Z,7.04
2019-03-11T05:14:21.636Z,6.99
2019-03-11T05:16:50.941Z,6.89
2019-03-11T05:19:20.188Z,7.04
2019-03-11T05:21:49.788Z,6.87
2019-03-11T05:24:19.103Z,6.92
2019-03-11T05:26:48.398Z,6.66
2019-03-11T05:29:17.687Z,6.79
2019-03-11T05:31:47.078Z,6.79
2019-03-11T05:34:18.377Z,6.64
2019-03-11T05:36:47.387Z,6.70
2019-03-11T05:39:17.044Z,7.01
2019-03-11T05:41:46.339Z,6.89
2019-03-11T05:44:15.622Z,6.68
2019-03-11T05:46:44.915Z,6.78
2019-03-11T05:49:14.277Z,6.72
2019-03-11T05:51:43.596Z,6.72
2019-03-11T05:54:13.367Z,6.57
2019-03-11T05:56:42.635Z,6.65
2019-03-11T05:59:11.933Z,6.67
2019-03-11T06:01:41.471Z,6.81
2019-03-11T06:04:10.714Z,6.71
2019-03-11T06:06:40.480Z,6.67
2019-03-11T06:09:09.929Z,6.72
2019-03-11T06:11:39.225Z,6.83
2019-03-11T06:14:08.969Z,6.88
2019-03-11T06:16:38.359Z,6.77
2019-03-11T06:19:07.628Z,6.73
2019-03-11T06:21:46.033Z,6.68
2019-03-11T06:24:15.345Z,6.66
2019-03-11T06:26:44.632Z,6.68
2019-03-11T06:29:13.978Z,6.74
2019-03-11T06:31:43.294Z,6.56
2019-03-11T06:34:13.103Z,6.56
2019-03-11T06:36:42.438Z,6.73
2019-03-11T06:39:11.717Z,6.70
2019-03-11T06:41:41.375Z,6.78
2019-03-11T06:44:10.813Z,7.00
2019-03-11T06:46:40.270Z,6.85
2019-03-11T06:49:09.961Z,6.64
2019-03-11T06:51:39.333Z,6.76
2019-03-11T06:54:08.651Z,6.86
2019-03-11T06:56:39.770Z,6.76
2019-03-11T06:59:09.078Z,6.71
2019-03-11T07:01:38.416Z,6.79
2019-03-11T07:04:08.188Z,6.68
2019-03-11T07:06:37.516Z,6.73
2019-03-11T07:09:08.580Z,6.88
2019-03-11T07:11:38.340Z,6.77
2019-03-11T07:14:08.656Z,6.81
2019-03-11T07:16:37.984Z,6.81
2019-03-11T07:19:07.664Z,6.84
2019-03-11T07:21:37.005Z,6.81
2019-03-11T07:24:06.311Z,6.81
2019-03-11T07:26:35.962Z,6.73
2019-03-11T07:29:05.296Z,6.88
2019-03-11T07:31:34.637Z,6.97
2019-03-11T07:34:05.304Z,7.01
2019-03-11T07:36:34.748Z,7.10
2019-03-11T07:39:04.739Z,7.06
2019-03-11T07:41:34.692Z,7.18
2019-03-11T07:44:06.916Z,7.13
2019-03-11T07:46:36.644Z,7.28
2019-03-11T07:49:05.970Z,7.23
2019-03-11T07:51:35.444Z,7.36
2019-03-11T07:54:06.263Z,7.34
2019-03-11T07:56:35.657Z,7.17
2019-03-11T07:59:05.219Z,7.46
2019-03-11T08:01:34.899Z,7.30
2019-03-11T08:04:06.624Z,7.34
2019-03-11T08:06:36.077Z,7.41
2019-03-11T08:09:07.577Z,7.69
2019-03-11T08:11:36.943Z,7.55
2019-03-11T08:14:06.382Z,7.62
2019-03-11T08:16:37.047Z,7.85
2019-03-11T08:19:06.399Z,7.85
2019-03-11T08:21:36.003Z,7.86
2019-03-11T08:24:06.700Z,7.94
2019-03-11T08:26:36.023Z,7.94
2019-03-11T08:29:06.092Z,8.26
2019-03-11T08:31:36.462Z,8.54
2019-03-11T08:34:06.464Z,8.28
2019-03-11T08:36:36.113Z,8.12
2019-03-11T08:39:11.956Z,8.12
2019-03-11T08:41:41.599Z,8.31
2019-03-11T08:44:10.987Z,8.33
2019-03-11T08:46:41.180Z,8.16
2019-03-11T08:49:10.625Z,8.18
2019-03-11T08:51:39.943Z,8.50
2019-03-11T08:54:09.775Z,8.32
2019-03-11T08:56:39.184Z,8.69
2019-03-11T08:59:08.587Z,8.60
2019-03-11T09:01:38.299Z,8.66
2019-03-11T09:04:08.712Z,8.73
2019-03-11T09:06:38.583Z,8.93
2019-03-11T09:09:09.174Z,8.90
2019-03-11T09:11:38.932Z,8.91
2019-03-11T09:14:08.495Z,8.72
2019-03-11T09:16:38.315Z,8.75
2019-03-11T09:19:07.734Z,8.66
2019-03-11T09:21:37.088Z,8.81
2019-03-11T09:24:18.395Z,8.95
2019-03-11T09:26:38.321Z,9.29
2019-03-11T09:29:07.668Z,9.50
2019-03-11T09:31:37.533Z,9.18
2019-03-11T09:34:07.128Z,9.27
2019-03-11T09:36:36.548Z,9.10
2019-03-11T09:39:09.574Z,9.17
2019-03-11T09:41:39.045Z,9.28
2019-03-11T09:44:08.417Z,8.86
2019-03-11T09:46:38.275Z,9.01
2019-03-11T09:49:07.686Z,9.53
2019-03-11T09:51:36.968Z,9.98
2019-03-11T09:54:09.522Z,10.10
2019-03-11T09:56:43.204Z,10.09
2019-03-11T09:59:09.969Z,10.08
2019-03-11T10:01:39.826Z,9.90
2019-03-11T10:04:09.351Z,10.15
2019-03-11T10:06:38.649Z,10.51
2019-03-11T10:09:09.002Z,10.37
2019-03-11T10:11:38.395Z,10.29
2019-03-11T10:14:07.903Z,10.37
2019-03-11T10:16:37.742Z,10.04
2019-03-11T10:19:07.161Z,9.61
2019-03-11T10:21:36.910Z,9.76
2019-03-11T10:24:06.640Z,9.70
2019-03-11T10:26:36.083Z,9.67
2019-03-11T10:29:05.416Z,9.56
2019-03-11T10:31:35.238Z,9.61
2019-03-11T10:34:05.247Z,9.61
2019-03-11T10:36:34.568Z,9.30
2019-03-11T10:39:05.633Z,9.05
2019-03-11T10:41:35.070Z,9.51
2019-03-11T10:44:07.434Z,9.44
2019-03-11T10:46:37.442Z,9.57
2019-03-11T10:49:07.004Z,9.57
2019-03-11T10:51:36.576Z,9.66
2019-03-11T10:54:09.638Z,9.70
2019-03-11T10:56:39.068Z,9.82
2019-03-11T10:59:08.508Z,9.77
2019-03-11T11:01:38.308Z,9.91
2019-03-11T11:04:07.880Z,10.00
2019-03-11T11:06:37.289Z,9.94
2019-03-11T11:09:07.894Z,9.85
2019-03-11T11:11:37.288Z,9.86
2019-03-11T11:14:06.643Z,9.97
2019-03-11T11:16:36.359Z,10.14
2019-03-11T11:19:05.872Z,10.56
2019-03-11T11:21:35.329Z,10.85
2019-03-11T11:24:07.886Z,10.50
2019-03-11T11:26:37.747Z,10.34
2019-03-11T11:29:07.203Z,10.27
2019-03-11T11:31:37.118Z,10.27
2019-03-11T11:34:09.537Z,10.54
2019-03-11T11:36:39.040Z,10.35
2019-03-11T11:39:09.180Z,10.30
2019-03-11T11:41:38.733Z,10.39
2019-03-11T11:44:08.088Z,10.07
2019-03-11T11:46:38.080Z,9.77
2019-03-11T11:49:08.000Z,9.73
2019-03-11T11:54:17.612Z,9.32
2019-03-11T11:56:46.929Z,9.23
2019-03-11T11:59:17.769Z,9.02
2019-03-11T12:01:47.250Z,9.02
2019-03-11T12:04:16.706Z,9.13
2019-03-11T12:06:46.224Z,9.25
2019-03-11T12:09:15.897Z,9.42
2019-03-11T12:11:46.809Z,9.70
2019-03-11T12:14:16.169Z,9.81
2019-03-11T12:16:45.809Z,10.15
2019-03-11T12:19:16.920Z,10.18
2019-03-11T12:21:49.059Z,10.34
2019-03-11T12:24:18.556Z,10.51
2019-03-11T12:26:48.017Z,10.77
2019-03-11T12:29:17.845Z,10.99
2019-03-11T12:31:50.573Z,10.81
2019-03-11T12:34:19.904Z,10.82
2019-03-11T12:36:49.305Z,11.04
2019-03-11T12:39:19.185Z,11.19
2019-03-11T12:41:48.676Z,10.92
2019-03-11T12:44:18.027Z,10.34
2019-03-11T12:46:47.855Z,10.46
2019-03-11T12:49:17.474Z,10.35
2019-03-11T12:51:50.052Z,10.32
2019-03-11T12:54:18.411Z,10.44
2019-03-11T12:56:47.751Z,10.87
2019-03-11T12:59:17.094Z,10.54
2019-03-11T13:01:47.070Z,10.80
2019-03-11T13:04:16.488Z,11.68
2019-03-11T13:06:46.127Z,12.60
2019-03-11T13:09:17.729Z,12.29
2019-03-11T13:11:49.615Z,12.07
2019-03-11T13:14:19.034Z,12.16
2019-03-11T13:16:48.512Z,12.21
2019-03-11T13:19:18.508Z,11.75
2019-03-11T13:21:48.851Z,11.74
2019-03-11T13:24:18.311Z,11.21
2019-03-11T13:29:20.891Z,11.76
2019-03-11T13:31:50.275Z,11.14
2019-03-11T13:34:20.228Z,10.97
2019-03-11T13:36:49.702Z,10.94
2019-03-11T13:39:19.049Z,11.37
2019-03-11T13:41:48.652Z,12.32
2019-03-11T13:44:18.391Z,12.28
2019-03-11T13:46:49.323Z,11.79
2019-03-11T13:49:18.805Z,11.63
2019-03-11T13:51:48.518Z,11.12
2019-03-11T13:54:18.019Z,11.20
2019-03-11T13:56:47.389Z,10.98
2019-03-11T13:59:17.211Z,11.00
2019-03-11T14:01:46.543Z,10.91
2019-03-11T14:04:15.910Z,10.82
2019-03-11T14:06:46.635Z,10.72
2019-03-11T14:09:15.919Z,10.84
2019-03-11T14:11:45.386Z,10.73
2019-03-11T14:14:15.172Z,10.91
2019-03-11T14:16:44.700Z,10.75
2019-03-11T14:19:14.118Z,11.25
2019-03-11T14:21:44.088Z,11.89
2019-03-11T14:24:13.648Z,12.29
2019-03-11T14:26:43.348Z,13.36
2019-03-11T14:29:13.399Z,14.07
2019-03-11T14:31:43.139Z,15.09
2019-03-11T14:34:14.051Z,15.84
2019-03-11T14:36:44.652Z,14.52
2019-03-11T14:39:14.136Z,13.62
2019-03-11T14:41:43.585Z,12.55
2019-03-11T14:44:14.641Z,13.29
2019-03-11T14:46:44.060Z,14.50
2019-03-11T14:49:13.592Z,14.52
2019-03-11T14:51:43.670Z,13.98
2019-03-11T14:54:13.242Z,14.13
2019-03-11T14:56:42.668Z,13.76
2019-03-11T14:59:14.211Z,14.19
2019-03-11T15:01:43.945Z,15.23
2019-03-11T15:04:13.679Z,15.96
2019-03-11T15:06:43.432Z,16.38
2019-03-11T15:09:13.068Z,14.23
2019-03-11T15:11:42.585Z,12.82
2019-03-11T15:14:12.845Z,12.76
2019-03-11T15:16:42.843Z,11.51
2019-03-11T15:19:12.238Z,11.45
2019-03-11T15:21:42.182Z,11.17
2019-03-11T15:24:11.564Z,10.86
2019-03-11T15:26:41.360Z,11.24
2019-03-11T15:29:10.863Z,12.31
2019-03-11T15:31:40.376Z,13.92
2019-03-11T15:34:10.400Z,15.68
2019-03-11T15:36:40.257Z,15.86
2019-03-11T15:39:09.900Z,16.03
2019-03-11T15:41:39.939Z,16.40
2019-03-11T15:44:09.517Z,17.55
2019-03-11T15:46:39.760Z,18.24
2019-03-11T15:49:11.327Z,18.61
2019-03-11T15:51:41.305Z,17.71
2019-03-11T15:54:11.236Z,16.10
2019-03-11T15:56:41.797Z,15.09
2019-03-11T15:59:11.673Z,14.72
2019-03-11T16:01:41.422Z,14.08
2019-03-11T16:04:11.755Z,13.53
2019-03-11T16:06:41.471Z,14.41
2019-03-11T16:09:19.072Z,15.35
2019-03-11T16:11:42.962Z,16.03
2019-03-11T16:14:13.752Z,15.16
2019-03-11T16:16:44.236Z,15.01
2019-03-11T16:19:14.173Z,14.89
2019-03-11T16:21:44.505Z,15.37
2019-03-11T16:24:15.113Z,15.30
2019-03-11T16:26:46.657Z,15.85
2019-03-11T16:29:17.034Z,16.38
2019-03-11T16:31:47.741Z,15.81
2019-03-11T16:34:17.614Z,15.83
2019-03-11T16:36:51.994Z,14.56
2019-03-11T16:39:24.475Z,14.35
2019-03-11T16:41:55.287Z,13.24
2019-03-11T16:44:25.490Z,11.79
2019-03-11T16:46:56.080Z,11.42
2019-03-11T16:49:26.384Z,10.79
2019-03-11T16:51:56.773Z,10.60
2019-03-11T16:54:28.315Z,9.94
2019-03-11T16:56:58.054Z,10.16
2019-03-11T16:59:28.326Z,10.18
2019-03-11T17:02:00.889Z,10.09
2019-03-11T17:04:31.212Z,10.05
2019-03-11T17:07:01.184Z,9.90
2019-03-11T17:09:31.345Z,9.65
2019-03-11T17:12:01.238Z,9.63
2019-03-11T17:14:31.433Z,9.47
2019-03-11T17:17:01.940Z,9.36
2019-03-11T17:19:32.070Z,9.50
2019-03-11T17:22:03.985Z,9.35
2019-03-11T17:24:34.639Z,9.31
2019-03-11T17:27:06.558Z,9.23
2019-03-11T17:29:38.184Z,9.28
2019-03-11T17:32:08.594Z,9.67
2019-03-11T17:34:38.530Z,9.40
2019-03-11T17:37:08.437Z,9.16
2019-03-11T17:39:39.332Z,9.29
2019-03-11T17:42:09.571Z,8.96
2019-03-11T17:44:39.537Z,8.83
2019-03-11T17:47:10.060Z,8.88
2019-03-11T17:49:39.986Z,8.96
2019-03-11T17:52:09.794Z,8.86
2019-03-11T17:54:40.354Z,8.73
2019-03-11T17:57:10.664Z,8.68
2019-03-11T17:59:40.615Z,8.51
2019-03-11T18:02:11.293Z,8.64
2019-03-11T18:04:41.210Z,8.60
2019-03-11T18:07:11.336Z,8.36
2019-03-11T18:09:41.707Z,8.46
2019-03-11T18:12:11.721Z,8.45
2019-03-11T18:14:41.881Z,8.41
2019-03-11T18:17:12.122Z,8.37
2019-03-11T18:19:42.061Z,8.21
2019-03-11T18:22:12.396Z,8.34
2019-03-11T18:24:44.012Z,8.24
2019-03-11T18:27:15.013Z,7.98
2019-03-11T18:29:44.973Z,8.06
2019-03-11T18:32:21.224Z,8.06
2019-03-11T18:34:51.160Z,7.94
2019-03-11T18:37:21.226Z,7.87
2019-03-11T18:39:51.598Z,7.99
2019-03-11T18:42:26.204Z,8.05
2019-03-11T18:44:53.484Z,8.03
2019-03-11T18:47:23.469Z,8.14
2019-03-11T18:49:54.135Z,7.87
2019-03-11T18:52:24.446Z,7.88
2019-03-11T18:54:54.539Z,7.92
2019-03-11T18:57:24.490Z,7.96
2019-03-11T18:59:55.758Z,8.06
2019-03-11T19:02:25.813Z,8.09
2019-03-11T19:04:56.020Z,7.97
2019-03-11T19:07:26.633Z,8.10
2019-03-11T19:09:56.588Z,7.85
2019-03-11T19:12:27.867Z,7.81
2019-03-11T19:14:58.405Z,7.97
2019-03-11T19:17:28.370Z,7.89
2019-03-11T19:19:59.906Z,7.96
2019-03-11T19:22:30.563Z,7.92
2019-03-11T19:25:00.655Z,7.85
2019-03-11T19:27:31.111Z,7.63
2019-03-11T19:30:02.572Z,7.76
2019-03-11T19:32:32.904Z,7.74
2019-03-11T19:35:03.214Z,7.77
2019-03-11T19:37:33.181Z,7.63
2019-03-11T19:40:05.051Z,7.51
2019-03-11T19:42:35.640Z,7.48
2019-03-11T19:45:06.562Z,7.58
2019-03-11T19:47:36.779Z,7.64
2019-03-11T19:50:08.945Z,7.55
2019-03-11T19:52:39.328Z,7.51
2019-03-11T19:55:11.659Z,7.52
2019-03-11T19:57:42.526Z,7.56
2019-03-11T20:00:15.564Z,7.46
2019-03-11T20:02:45.908Z,7.39
2019-03-11T20:05:17.135Z,7.32
2019-03-11T20:07:47.669Z,7.49
2019-03-11T20:10:18.100Z,7.37
2019-03-11T20:12:48.531Z,7.45
2019-03-11T20:15:18.530Z,7.50
2019-03-11T20:17:48.694Z,7.71
2019-03-11T20:20:19.158Z,7.73
2019-03-11T20:22:49.328Z,8.29
2019-03-11T20:25:22.014Z,8.50
2019-03-11T20:27:52.413Z,8.55
2019-03-11T20:30:22.718Z,8.59
2019-03-11T20:32:54.098Z,8.31
2019-03-11T20:35:24.351Z,8.00
2019-03-11T20:37:54.678Z,7.60
2019-03-11T20:40:25.191Z,7.89
2019-03-11T20:42:57.873Z,7.81
2019-03-11T20:45:28.346Z,7.55
2019-03-11T20:47:59.370Z,7.62
2019-03-11T20:50:41.540Z,7.66
2019-03-11T20:53:05.401Z,7.80
2019-03-11T20:55:34.575Z,7.65
2019-03-11T20:58:09.715Z,7.76
2019-03-11T21:00:39.824Z,7.94
2019-03-11T21:03:10.657Z,7.61
2019-03-11T21:05:42.497Z,7.55
2019-03-11T21:08:13.671Z,7.56
2019-03-11T21:10:44.734Z,7.85
2019-03-11T21:13:14.746Z,7.51
2019-03-11T21:15:45.915Z,7.39
2019-03-11T21:18:17.048Z,7.45
2019-03-11T21:20:49.190Z,7.69
2019-03-11T21:23:26.382Z,7.69
2019-03-11T21:25:57.214Z,7.62
2019-03-11T21:28:28.303Z,7.61
2019-03-11T21:31:01.045Z,7.74
2019-03-11T21:33:31.442Z,7.59
2019-03-11T21:36:07.798Z,7.64
2019-03-11T21:38:44.037Z,7.42
2019-03-11T21:41:14.352Z,7.32
2019-03-11T21:43:44.781Z,7.61
2019-03-11T21:46:14.310Z,7.74
2019-03-11T21:48:43.919Z,7.19
2019-03-11T21:51:13.972Z,7.25
2019-03-11T21:53:43.518Z,7.37
2019-03-11T21:56:12.948Z,7.36
2019-03-11T21:58:42.713Z,7.27
2019-03-11T22:01:13.946Z,7.25
2019-03-11T22:03:44.046Z,7.37
2019-03-11T22:06:14.122Z,7.32
2019-03-11T22:08:43.513Z,7.41
2019-03-11T22:11:13.023Z,7.58
2019-03-11T22:13:42.748Z,7.34
2019-03-11T22:16:12.099Z,7.44
2019-03-11T22:18:41.526Z,7.38
2019-03-11T22:21:11.237Z,7.19
2019-03-11T22:23:42.113Z,7.09
2019-03-11T22:26:11.702Z,7.14
2019-03-11T22:28:41.497Z,7.13
2019-03-11T22:31:10.940Z,7.20
2019-03-11T22:33:41.153Z,7.27
2019-03-11T22:36:10.446Z,7.50
2019-03-11T22:38:39.814Z,7.43
2019-03-11T22:41:10.237Z,7.56
2019-03-11T22:43:39.756Z,7.18
2019-03-11T22:46:10.209Z,6.79
2019-03-11T22:48:44.816Z,6.88
2019-03-11T22:51:22.115Z,6.97
2019-03-11T22:53:52.261Z,6.80
2019-03-11T22:56:22.381Z,6.88
2019-03-11T22:58:52.384Z,6.82
2019-03-11T23:01:21.879Z,6.80
2019-03-11T23:03:51.681Z,6.83
2019-03-11T23:06:21.096Z,6.86
2019-03-11T23:08:50.479Z,7.05
2019-03-11T23:11:19.787Z,7.08
2019-03-11T23:13:49.073Z,7.12
2019-03-11T23:16:19.873Z,6.95
2019-03-11T23:18:49.433Z,6.81
2019-03-11T23:21:18.766Z,6.87
2019-03-11T23:23:50.593Z,6.78
2019-03-11T23:26:19.920Z,6.63
2019-03-11T23:28:49.764Z,6.61
2019-03-11T23:31:19.129Z,6.64
2019-03-11T23:33:48.495Z,6.70
2019-03-11T23:36:18.135Z,6.68
2019-03-11T23:38:50.114Z,6.62
2019-03-11T23:41:21.747Z,6.80
2019-03-11T23:43:51.646Z,6.98
2019-03-11T23:46:23.427Z,6.57
2019-03-11T23:48:52.717Z,6.65
2019-03-11T23:51:22.040Z,6.73
2019-03-11T23:53:51.389Z,6.96
2019-03-11T23:56:20.755Z,7.08
2019-03-11T23:58:50.056Z,6.98
